Time;durP1;ratioP1;P1;durP2;ratioP2;P2;SDS_P1;SDS_P2;PMS_P1;PMS_P2;Temp;Humidity;BMP_temperature;BMP_pressure;BME280_temperature;BME280_humidity;BME280_pressure;Samples;Min_cycle;Max_cycle;Signal;HPM_P1;HPM_P2
2021/01/11 00:00:10;;;;;;;14.15;7.30;;;;;;;-3.38;88.87;100050.03;5074357;28;20206;-69
2021/01/11 00:02:37;;;;;;;17.05;8.38;;;;;;;-3.41;88.88;100037.72;5073981;28;20209;-68
2021/01/11 00:05:04;;;;;;;9.10;6.75;;;;;;;-3.38;88.83;100037.75;5074282;28;20612;-70
2021/01/11 00:07:30;;;;;;;7.82;6.93;;;;;;;-3.39;88.69;100046.53;5073925;28;20205;-68
2021/01/11 00:09:57;;;;;;;12.82;9.13;;;;;;;-3.41;88.63;100048.28;5073766;28;20212;-68
2021/01/11 00:12:23;;;;;;;12.70;7.47;;;;;;;-3.40;88.75;100042.13;5074140;28;20542;-69
2021/01/11 00:14:50;;;;;;;10.95;7.85;;;;;;;-3.40;88.67;100039.47;5073686;28;20262;-69
2021/01/11 00:17:17;;;;;;;19.50;9.50;;;;;;;-3.41;88.72;100036.88;5074071;28;20210;-69
2021/01/11 00:19:43;;;;;;;13.77;8.40;;;;;;;-3.26;89.14;100047.44;5073522;28;20264;-69
2021/01/11 00:22:10;;;;;;;11.38;8.52;;;;;;;-3.25;88.04;100043.09;5073351;28;20205;-70
2021/01/11 00:24:36;;;;;;;6.78;6.07;;;;;;;-3.29;87.96;100050.09;5073234;28;20292;-70
2021/01/11 00:27:02;;;;;;;18.38;6.07;;;;;;;-3.42;87.85;100046.50;5073519;28;20198;-68
2021/01/11 00:29:28;;;;;;;10.65;6.70;;;;;;;-3.46;88.18;100049.09;5073825;28;20571;-69
2021/01/11 00:31:56;;;;;;;11.20;6.53;;;;;;;-3.59;88.30;100049.03;5073858;28;20641;-68
2021/01/11 00:34:23;;;;;;;7.80;5.85;;;;;;;-3.61;88.52;100042.88;5073544;28;20547;-69
2021/01/11 00:36:57;;;;;;;13.30;6.05;;;;;;;-3.70;88.81;100047.22;5073396;28;20236;-69
2021/01/11 00:39:24;;;;;;;9.75;7.15;;;;;;;-3.65;88.86;100043.72;5073675;28;20650;-70
2021/01/11 00:41:55;;;;;;;11.13;7.97;;;;;;;-3.72;88.98;100041.06;5073419;28;20192;-69
2021/01/11 00:44:22;;;;;;;10.48;6.45;;;;;;;-3.59;89.07;100033.25;5073575;28;20319;-68
2021/01/11 00:46:48;;;;;;;11.20;7.22;;;;;;;-3.51;88.89;100033.28;5073830;28;21089;-68
2021/01/11 00:49:14;;;;;;;17.75;7.40;;;;;;;-3.50;88.75;100024.53;5073321;28;20680;-69
2021/01/11 00:51:41;;;;;;;11.50;6.18;;;;;;;-3.48;88.37;100029.78;5073199;28;20212;-69
2021/01/11 00:54:07;;;;;;;8.15;5.85;;;;;;;-3.54;88.81;100020.09;5073465;28;20357;-68
2021/01/11 00:56:34;;;;;;;10.45;6.90;;;;;;;-3.50;88.60;100024.53;5073088;28;20224;-68
2021/01/11 00:59:00;;;;;;;9.18;7.30;;;;;;;-3.54;88.77;100029.75;5073221;28;20690;-69
2021/01/11 01:01:27;;;;;;;7.03;6.30;;;;;;;-3.54;89.15;100030.63;5073390;28;20204;-68
2021/01/11 01:03:53;;;;;;;7.90;5.15;;;;;;;-3.49;88.62;100035.94;5073158;28;20231;-69
2021/01/11 01:06:20;;;;;;;5.50;5.00;;;;;;;-3.60;88.36;100027.97;5072773;28;20300;-69
2021/01/11 01:08:47;;;;;;;6.30;5.78;;;;;;;-3.60;88.22;100026.19;5072952;28;20643;-69
2021/01/11 01:11:14;;;;;;;9.80;6.65;;;;;;;-3.67;88.15;100024.41;5072878;28;20746;-69
2021/01/11 01:13:40;;;;;;;10.02;7.35;;;;;;;-3.80;88.67;100027.81;5073082;28;20244;-69
2021/01/11 01:16:06;;;;;;;11.23;5.53;;;;;;;-3.70;88.46;100029.66;5072948;28;20279;-69
2021/01/11 01:18:32;;;;;;;6.20;5.30;;;;;;;-3.77;88.16;100022.59;5072852;28;20247;-69
2021/01/11 01:20:59;;;;;;;5.05;4.45;;;;;;;-3.81;88.38;100034.84;5072769;28;20239;-69
2021/01/11 01:23:25;;;;;;;9.25;5.55;;;;;;;-3.85;88.48;100050.59;5072838;28;20627;-69
2021/01/11 01:25:52;;;;;;;11.73;5.93;;;;;;;-3.71;88.46;100054.19;5072627;28;20643;-69
2021/01/11 01:28:19;;;;;;;8.07;6.97;;;;;;;-3.84;88.46;100047.13;5072719;28;20284;-69
2021/01/11 01:30:45;;;;;;;6.57;5.45;;;;;;;-3.86;88.86;100036.56;5072223;28;20198;-69
2021/01/11 01:33:11;;;;;;;5.38;4.88;;;;;;;-3.79;89.00;100040.13;5072247;28;20244;-69
2021/01/11 01:35:37;;;;;;;11.10;5.60;;;;;;;-3.79;88.89;100041.00;5072564;28;20276;-69
2021/01/11 01:38:04;;;;;;;7.75;5.88;;;;;;;-3.78;88.67;100049.78;5072084;28;20354;-69
2021/01/11 01:40:30;;;;;;;9.23;6.43;;;;;;;-3.78;88.65;100047.13;5072563;28;20594;-68
2021/01/11 01:42:57;;;;;;;10.07;4.45;;;;;;;-3.82;88.42;100056.78;5072455;28;20594;-69
2021/01/11 01:45:23;;;;;;;6.00;4.38;;;;;;;-3.75;88.43;100068.25;5072394;28;20276;-68
2021/01/11 01:47:49;;;;;;;7.55;6.65;;;;;;;-3.81;88.22;100071.69;5072230;28;20681;-68
2021/01/11 01:50:16;;;;;;;8.48;5.75;;;;;;;-3.73;88.20;100076.13;5071964;28;20644;-69
2021/01/11 01:52:44;;;;;;;9.88;5.40;;;;;;;-3.75;88.12;100078.75;5071859;28;20204;-69
2021/01/11 01:55:12;;;;;;;13.27;6.18;;;;;;;-3.81;88.51;100082.22;5072170;28;20682;-69
2021/01/11 01:57:38;;;;;;;6.90;6.15;;;;;;;-3.85;88.99;100067.25;5072243;28;20217;-70
2021/01/11 02:00:08;;;;;;;13.70;5.88;;;;;;;-3.80;88.81;100069.94;5072121;28;20674;-68
2021/01/11 02:02:34;;;;;;;10.32;5.40;;;;;;;-3.75;89.09;100070.88;5072111;28;20283;-69
2021/01/11 02:05:00;;;;;;;9.25;6.50;;;;;;;-3.71;88.87;100074.38;5071714;28;20209;-69
2021/01/11 02:07:34;;;;;;;9.52;5.43;;;;;;;-3.62;88.71;100079.72;5071819;28;20288;-69
2021/01/11 02:10:17;;;;;;;10.25;5.68;;;;;;;-3.65;88.18;100071.81;5071655;28;20181;-70
2021/01/11 02:12:56;;;;;;;4.80;4.32;;;;;;;-3.77;88.00;100073.47;5071735;28;20193;-70
2021/01/11 02:15:32;;;;;;;12.40;7.57;;;;;;;-3.84;88.32;100068.16;5071857;28;20246;-69
2021/01/11 02:18:02;;;;;;;6.65;3.95;;;;;;;-3.79;88.52;100079.59;5071566;28;20275;-69
2021/01/11 02:20:57;;;;;;;4.90;4.20;;;;;;;-3.79;88.14;100083.09;5071926;28;20231;-68
2021/01/11 02:23:56;;;;;;;10.75;6.60;;;;;;;-3.80;87.76;100086.63;5071699;28;20201;-68
2021/01/11 02:26:41;;;;;;;5.60;4.97;;;;;;;-3.84;87.94;100084.84;5029711;28;20207;-69
2021/01/11 02:29:21;;;;;;;8.95;6.00;;;;;;;-3.88;87.58;100087.44;5072030;28;20614;-69
2021/01/11 02:31:50;;;;;;;5.90;5.10;;;;;;;-3.98;87.89;100078.56;5072000;28;20193;-69
2021/01/11 02:34:18;;;;;;;6.47;4.97;;;;;;;-4.01;88.30;100075.91;5072150;28;20243;-69
2021/01/11 02:36:44;;;;;;;11.32;7.07;;;;;;;-3.97;88.23;100068.94;5072025;28;20300;-69
2021/01/11 02:39:10;;;;;;;10.77;4.45;;;;;;;-3.96;88.01;100071.56;5071594;28;20252;-69
2021/01/11 02:41:37;;;;;;;8.05;4.97;;;;;;;-3.94;88.46;100061.94;5072103;28;20609;-70
2021/01/11 02:44:04;;;;;;;9.07;4.97;;;;;;;-3.91;88.02;100061.06;5072037;28;20204;-70
2021/01/11 02:46:30;;;;;;;6.85;5.90;;;;;;;-4.00;88.52;100062.78;5073480;28;20903;-69
2021/01/11 02:48:58;;;;;;;8.10;4.53;;;;;;;-4.06;88.88;100064.47;5075808;28;20212;-69
2021/01/11 02:51:31;;;;;;;8.82;6.40;;;;;;;-3.95;88.81;100069.84;5075972;28;21005;-69
2021/01/11 02:54:07;;;;;;;16.75;5.53;;;;;;;-3.94;88.64;100061.06;5075872;28;20185;-70
2021/01/11 02:56:39;;;;;;;8.90;5.07;;;;;;;-4.04;88.08;100060.97;5075844;28;20587;-69
2021/01/11 02:59:17;;;;;;;7.82;5.60;;;;;;;-4.24;88.62;100062.56;5075548;28;20261;-69
2021/01/11 03:01:49;;;;;;;5.22;4.78;;;;;;;-4.25;88.77;100060.78;5075793;28;20227;-69
2021/01/11 03:04:21;;;;;;;5.25;4.85;;;;;;;-4.31;88.79;100055.50;5075576;28;20208;-69
2021/01/11 03:06:55;;;;;;;9.70;4.97;;;;;;;-4.36;88.90;100049.28;5075346;28;20208;-69
2021/01/11 03:09:21;;;;;;;3.97;3.47;;;;;;;-4.25;88.91;100045.00;5075404;28;20231;-69
2021/01/11 03:11:47;;;;;;;6.65;5.20;;;;;;;-4.24;89.17;100036.28;5075591;28;20209;-69
2021/01/11 03:14:13;;;;;;;7.10;4.75;;;;;;;-4.31;89.11;100032.69;5075422;28;20252;-69
2021/01/11 03:16:40;;;;;;;5.88;4.97;;;;;;;-4.31;89.27;100030.06;5075519;28;20642;-69
2021/01/11 03:19:06;;;;;;;13.68;6.30;;;;;;;-4.32;89.54;100027.41;5075261;28;20627;-69
2021/01/11 03:21:34;;;;;;;5.80;4.60;;;;;;;-4.29;89.34;100024.84;5075463;28;20295;-69
2021/01/11 03:24:00;;;;;;;5.97;5.05;;;;;;;-4.30;89.31;100029.19;5075336;28;20287;-68
2021/01/11 03:26:27;;;;;;;7.75;5.82;;;;;;;-4.07;89.00;100020.59;5074883;28;20195;-68
2021/01/11 03:28:54;;;;;;;6.55;5.03;;;;;;;-4.16;88.41;100021.44;5075374;28;20284;-68
2021/01/11 03:31:20;;;;;;;6.32;5.15;;;;;;;-4.22;88.36;100021.38;5075178;28;20303;-68
2021/01/11 03:33:46;;;;;;;7.25;5.95;;;;;;;-4.27;88.50;100023.09;5075359;28;20220;-69
2021/01/11 03:36:12;;;;;;;7.25;6.65;;;;;;;-4.20;88.33;100022.28;5075413;28;20277;-69
2021/01/11 03:38:40;;;;;;;4.75;4.15;;;;;;;-4.35;88.54;100022.16;5075084;28;20661;-69
2021/01/11 03:41:07;;;;;;;9.82;5.85;;;;;;;-4.37;88.72;100037.03;5075212;28;21010;-68
2021/01/11 03:43:33;;;;;;;10.93;5.50;;;;;;;-4.41;89.07;100034.38;5074770;28;20199;-69
2021/01/11 03:46:00;;;;;;;10.32;6.32;;;;;;;-4.25;88.60;100043.28;5075081;28;20267;-68
2021/01/11 03:48:26;;;;;;;12.60;5.65;;;;;;;-4.28;87.79;100040.59;5074817;28;20224;-69
2021/01/11 03:50:52;;;;;;;5.85;4.38;;;;;;;-4.34;87.58;100048.47;5074359;28;20315;-69
2021/01/11 03:53:18;;;;;;;5.20;3.30;;;;;;;-4.36;87.88;100050.19;5074713;28;20213;-69
2021/01/11 03:55:45;;;;;;;8.63;5.68;;;;;;;-4.38;88.22;100049.28;5074715;28;20196;-69
2021/01/11 03:58:11;;;;;;;8.02;6.15;;;;;;;-4.29;88.17;100043.25;5073205;28;20208;-68
2021/01/11 04:00:38;;;;;;;9.90;5.95;;;;;;;-4.21;88.00;100041.53;5074563;28;20247;-69
2021/01/11 04:03:04;;;;;;;6.55;5.93;;;;;;;-4.19;87.82;100051.19;5073996;28;20303;-69
2021/01/11 04:05:31;;;;;;;13.55;5.07;;;;;;;-4.27;88.10;100052.03;5074490;28;20220;-69
2021/01/11 04:07:57;;;;;;;10.43;5.88;;;;;;;-4.26;88.54;100049.38;5074455;28;20608;-69
2021/01/11 04:10:23;;;;;;;5.45;5.03;;;;;;;-4.30;88.47;100051.97;5073895;28;20236;-69
2021/01/11 04:12:51;;;;;;;5.60;4.10;;;;;;;-4.31;88.69;100042.34;5074364;28;20315;-69
2021/01/11 04:15:17;;;;;;;9.02;4.75;;;;;;;-4.34;88.81;100045.84;5073956;28;20189;-68
2021/01/11 04:17:43;;;;;;;4.60;4.15;;;;;;;-4.34;88.47;100040.56;5074348;28;20209;-69
2021/01/11 04:20:10;;;;;;;5.68;4.18;;;;;;;-4.29;88.40;100045.88;5074173;28;20541;-69
2021/01/11 04:22:36;;;;;;;5.05;4.65;;;;;;;-4.30;88.94;100051.97;5074117;28;20255;-67
2021/01/11 04:25:03;;;;;;;3.67;3.25;;;;;;;-4.33;88.73;100044.06;5073645;28;20200;-69
2021/01/11 04:27:29;;;;;;;4.53;4.13;;;;;;;-4.33;88.60;100052.84;5074193;28;20610;-69
2021/01/11 04:29:56;;;;;;;6.50;4.38;;;;;;;-4.43;88.60;100051.00;5073981;28;20588;-70
2021/01/11 04:32:22;;;;;;;4.07;3.65;;;;;;;-4.53;88.83;100046.50;5073960;28;20208;-69
2021/01/11 04:34:48;;;;;;;5.82;3.55;;;;;;;-4.46;88.75;100050.97;5073911;28;20193;-69
2021/01/11 04:37:14;;;;;;;6.63;5.32;;;;;;;-4.51;88.64;100048.28;5073463;28;20189;-69
2021/01/11 04:39:40;;;;;;;7.55;6.93;;;;;;;-4.47;89.11;100043.94;5073784;28;20216;-69
2021/01/11 04:42:12;;;;;;;5.93;4.03;;;;;;;-4.48;88.97;100045.66;5073416;28;20208;-69
2021/01/11 04:44:38;;;;;;;4.10;3.70;;;;;;;-4.42;88.81;100043.09;5073781;28;20199;-69
2021/01/11 04:47:05;;;;;;;5.47;4.43;;;;;;;-4.42;88.21;100037.84;5073727;28;20200;-68
2021/01/11 04:49:31;;;;;;;6.57;4.30;;;;;;;-4.33;88.18;100030.94;5073260;28;20232;-69
2021/01/11 04:51:59;;;;;;;10.55;6.05;;;;;;;-4.42;87.80;100039.59;5073240;28;20224;-69
2021/01/11 04:54:26;;;;;;;4.70;3.95;;;;;;;-4.46;88.13;100035.19;5073477;28;20189;-69
2021/01/11 04:57:00;;;;;;;4.97;4.57;;;;;;;-4.49;87.68;100038.66;5073429;28;20270;-69
2021/01/11 04:59:27;;;;;;;6.22;5.30;;;;;;;-4.49;87.59;100035.16;5073381;28;20230;-70
2021/01/11 05:01:55;;;;;;;5.95;4.20;;;;;;;-4.55;87.90;100024.59;5073283;28;20276;-69
2021/01/11 05:04:22;;;;;;;9.25;4.60;;;;;;;-4.62;88.24;100021.88;5072956;28;20200;-69
2021/01/11 05:06:48;;;;;;;3.25;2.95;;;;;;;-4.57;88.40;100027.19;5073331;28;20303;-68
2021/01/11 05:09:17;;;;;;;9.73;5.38;;;;;;;-4.51;88.57;100029.00;5072547;28;20196;-69
2021/01/11 05:11:44;;;;;;;5.22;4.22;;;;;;;-4.62;88.38;100021.88;5072807;28;20199;-68
2021/01/11 05:14:16;;;;;;;11.48;4.22;;;;;;;-4.54;88.59;100027.25;5073191;28;20603;-69
2021/01/11 05:16:43;;;;;;;5.90;5.30;;;;;;;-4.55;88.77;100035.09;5072868;28;20691;-69
2021/01/11 05:19:23;;;;;;;3.25;2.97;;;;;;;-4.61;88.36;100021.03;5072796;28;20224;-69
2021/01/11 05:22:02;;;;;;;4.63;4.05;;;;;;;-4.54;88.28;100011.47;5072655;28;20188;-69
2021/01/11 05:24:40;;;;;;;6.10;3.65;;;;;;;-4.62;87.90;100015.75;5072241;28;20188;-69
2021/01/11 05:27:17;;;;;;;9.30;5.97;;;;;;;-4.58;87.70;100027.19;5072494;28;20184;-68
2021/01/11 05:29:58;;;;;;;6.65;4.70;;;;;;;-4.59;87.74;100012.28;5072371;28;20659;-69
2021/01/11 05:32:30;;;;;;;4.10;3.80;;;;;;;-4.55;87.55;100016.69;5072886;28;21014;-69
2021/01/11 05:35:11;;;;;;;8.45;5.97;;;;;;;-4.46;87.42;100009.78;5072661;28;20203;-69
2021/01/11 05:37:51;;;;;;;5.97;4.32;;;;;;;-4.36;87.28;100004.59;5072300;28;20258;-69
2021/01/11 05:40:34;;;;;;;5.97;4.85;;;;;;;-4.35;86.44;100011.63;5072480;28;20618;-69
2021/01/11 05:43:33;;;;;;;5.50;5.10;;;;;;;-4.51;86.87;100000.97;5072325;28;20224;-68
2021/01/11 05:46:28;;;;;;;5.85;5.10;;;;;;;-4.61;87.23;100009.66;5072149;28;20280;-69
2021/01/11 05:49:14;;;;;;;4.18;3.83;;;;;;;-4.55;87.23;100017.56;5072004;28;20595;-69
2021/01/11 05:51:53;;;;;;;;;;;;;;;;;;;;;
2021/01/11 05:54:31;;;;;;;12.63;6.57;;;;;;;-4.53;86.59;100028.97;5052392;28;20543;-69
2021/01/11 05:57:07;;;;;;;7.22;4.78;;;;;;;-4.66;86.78;100020.13;5052155;28;20185;-69
2021/01/11 05:59:58;;;;;;;5.90;3.72;;;;;;;-4.64;87.10;100026.25;5052263;28;20698;-68
2021/01/11 06:02:26;;;;;;;5.40;4.47;;;;;;;-4.63;87.54;100016.63;5051513;28;20279;-69
2021/01/11 06:05:05;;;;;;;8.07;4.00;;;;;;;-4.61;88.00;100020.16;5052155;28;20209;-69
2021/01/11 06:07:43;;;;;;;7.60;5.20;;;;;;;-4.53;87.52;100022.84;5051881;28;20240;-70
2021/01/11 06:10:23;;;;;;;5.55;3.85;;;;;;;-4.47;87.25;100017.66;5044525;28;20683;-70
2021/01/11 06:13:19;;;;;;;7.38;5.35;;;;;;;-4.56;87.60;100017.56;5051932;28;20204;-69
2021/01/11 06:19:24;;;;;;;6.25;4.97;;;;;;;-4.41;87.49;100031.75;5043977;28;20231;-70
2021/01/11 06:22:02;;;;;;;8.27;4.28;;;;;;;-4.52;87.28;100025.50;5050959;28;20288;-69
2021/01/11 06:25:02;;;;;;;;;;;;;;;;;;;;;
2021/01/11 06:27:52;;;;;;;4.75;4.30;;;;;;;-4.48;86.84;100029.91;5030827;28;20232;-69
2021/01/11 06:30:55;;;;;;;6.10;3.72;;;;;;;-4.58;87.04;100037.69;5044839;28;20186;-68
2021/01/11 06:33:47;;;;;;;8.85;4.30;;;;;;;-4.31;86.75;100039.72;4978335;28;20211;-69
2021/01/11 06:42:54;;;;;;;;;;;;;;;;;;;;;
2021/01/11 06:45:57;;;;;;;10.52;5.68;;;;;;;-3.98;86.49;100023.31;5034017;28;20207;-70
2021/01/11 06:51:51;;;;;;;;;;;;;;;;;;;;;
2021/01/11 06:54:41;;;;;;;10.43;5.93;;;;;;;-3.88;84.86;100017.25;5064432;28;20215;-69
2021/01/11 07:00:54;;;;;;;5.35;4.43;;;;;;;-3.91;84.09;100024.25;5053565;28;20299;-69
2021/01/11 07:03:58;;;;;;;9.60;5.25;;;;;;;-4.24;84.45;100017.84;5071125;28;20204;-69
2021/01/11 07:07:21;;;;;;;8.77;4.68;;;;;;;-4.22;85.15;100024.00;4950530;28;20647;-70
2021/01/11 07:10:14;;;;;;;6.35;4.45;;;;;;;-4.35;85.58;100011.63;5058517;28;20204;-69
2021/01/11 07:12:56;;;;;;;6.43;5.15;;;;;;;-4.41;85.35;100030.84;5061160;28;20615;-70
2021/01/11 07:15:36;;;;;;;4.70;4.25;;;;;;;-4.54;85.29;100039.50;5071262;28;20255;-69
2021/01/11 07:18:21;;;;;;;7.97;3.30;;;;;;;-4.65;85.46;100034.13;5071240;28;20659;-69
2021/01/11 07:27:12;;;;;;;5.13;4.63;;;;;;;-4.62;86.08;100039.41;5069332;28;20555;-68
2021/01/11 07:30:11;;;;;;;5.13;3.55;;;;;;;-4.55;86.26;100043.84;5070802;28;20216;-69
2021/01/11 07:33:13;;;;;;;;;;;;;;;;;;;;;
2021/01/11 07:36:10;;;;;;;10.38;7.47;;;;;;;-4.56;85.68;100035.97;5074704;28;20183;-70
2021/01/11 07:41:48;;;;;;;7.47;5.60;;;;;;;-4.48;85.07;100045.66;5073677;28;20287;-68
2021/01/11 07:44:44;;;;;;;;;;;;;;;;;;;;;
2021/01/11 07:51:18;;;;;;;;;;;;;;;;;;;;;
2021/01/11 07:57:13;;;;;;;11.23;4.95;;;;;;;-4.46;85.60;100053.59;5072142;28;20208;-68
2021/01/11 08:06:20;;;;;;;11.85;5.65;;;;;;;-4.10;85.03;100055.66;5072453;28;20245;-69
2021/01/11 08:12:16;;;;;;;9.15;6.90;;;;;;;-3.74;83.53;100051.56;5038617;28;20198;-70
2021/01/11 08:14:46;;;;;;;12.98;6.40;;;;;;;-3.64;82.43;100048.13;5070963;28;20231;-69
2021/01/11 08:17:32;;;;;;;10.40;5.68;;;;;;;-3.72;82.86;100059.47;5073723;28;20288;-64
2021/01/11 08:20:04;;;;;;;16.35;6.90;;;;;;;-3.91;83.00;100053.19;5073539;28;20259;-64
2021/01/11 08:25:34;;;;;;;14.73;6.97;;;;;;;-3.63;87.78;100047.25;5071633;28;20295;-65
2021/01/11 08:31:00;;;;;;;7.80;4.47;;;;;;;-3.51;85.52;100040.31;5072689;28;20579;-65
2021/01/11 08:34:11;;;;;;;12.85;5.15;;;;;;;-3.51;84.60;100035.91;5073378;28;20204;-64
2021/01/11 08:40:17;;;;;;;8.57;5.68;;;;;;;-3.42;83.44;100050.88;5032868;28;20220;-64
2021/01/11 08:43:28;;;;;;;6.55;4.60;;;;;;;-3.40;83.28;100057.03;5073281;28;20199;-63
2021/01/11 08:46:09;;;;;;;8.60;6.25;;;;;;;-3.40;83.21;100057.91;5073011;28;20288;-65
2021/01/11 08:48:43;;;;;;;6.90;5.28;;;;;;;-3.46;83.62;100043.84;5073559;28;20540;-64
2021/01/11 08:51:27;;;;;;;6.28;4.72;;;;;;;-3.41;83.87;100047.41;5072886;28;20228;-64
2021/01/11 08:54:27;;;;;;;7.13;5.75;;;;;;;-3.29;84.05;100044.81;5072851;28;20196;-64
2021/01/11 09:00:06;;;;;;;;;;;;;;;;;;;;;
2021/01/11 09:02:48;;;;;;;6.10;5.60;;;;;;;-3.18;83.30;100064.19;5063943;28;20543;-64
2021/01/11 09:05:37;;;;;;;4.55;4.10;;;;;;;-3.21;82.77;100058.91;5073072;28;20257;-66
2021/01/11 09:08:19;;;;;;;9.55;6.68;;;;;;;-3.09;83.33;100066.00;5072302;28;20209;-63
2021/01/11 09:10:54;;;;;;;4.90;4.30;;;;;;;-2.90;83.07;100074.84;5072691;28;20211;-64
2021/01/11 09:13:49;;;;;;;5.38;4.88;;;;;;;-2.85;82.20;100083.66;5072649;28;20196;-63
2021/01/11 09:16:37;;;;;;;6.40;4.47;;;;;;;-2.63;81.21;100071.41;5072447;28;20228;-64
2021/01/11 09:19:15;;;;;;;5.63;4.70;;;;;;;-2.64;80.86;100072.31;5072385;28;20208;-64
2021/01/11 09:21:56;;;;;;;5.78;5.22;;;;;;;-2.46;80.95;100081.16;5072667;28;20194;-64
2021/01/11 09:24:32;;;;;;;3.92;3.58;;;;;;;-2.42;80.56;100083.81;5072378;28;20213;-65
2021/01/11 09:30:15;;;;;;;11.35;6.55;;;;;;;-1.91;79.30;100081.22;5071289;28;20662;-64
2021/01/11 09:35:56;;;;;;;10.02;6.28;;;;;;;-1.16;76.81;100102.25;5068533;28;20216;-64
2021/01/11 09:38:22;;;;;;;6.22;5.55;;;;;;;-0.60;75.09;100096.78;5072510;28;20276;-65
2021/01/11 09:40:48;;;;;;;9.40;5.68;;;;;;;-0.57;74.57;100094.09;5071900;28;20260;-65
2021/01/11 09:46:11;;;;;;;9.38;6.35;;;;;;;-0.83;74.49;100100.41;5054441;28;20302;-64
2021/01/11 09:48:49;;;;;;;6.57;5.38;;;;;;;-0.99;75.19;100085.47;5072666;28;20185;-64
2021/01/11 09:51:30;;;;;;;7.68;6.20;;;;;;;-0.94;75.45;100081.91;5071613;28;20697;-63
2021/01/11 09:54:01;;;;;;;8.65;5.90;;;;;;;-0.98;75.53;100081.94;5071345;28;20277;-65
2021/01/11 09:56:30;;;;;;;8.50;4.38;;;;;;;-1.03;76.49;100081.94;5071905;28;20655;-65
2021/01/11 09:59:00;;;;;;;17.10;5.22;;;;;;;-0.92;76.36;100084.56;5071839;28;20227;-62
2021/01/11 10:01:46;;;;;;;8.45;7.28;;;;;;;-0.84;77.15;100082.75;5071733;28;20215;-63
2021/01/11 10:04:20;;;;;;;6.38;4.45;;;;;;;-0.79;76.40;100086.28;5072045;28;20208;-64
2021/01/11 10:06:51;;;;;;;7.57;5.03;;;;;;;-0.68;75.88;100084.47;5071764;28;20217;-63
2021/01/11 10:09:18;;;;;;;20.48;7.65;;;;;;;-0.65;75.84;100079.16;5071809;28;20197;-63
2021/01/11 10:12:08;;;;;;;8.18;6.00;;;;;;;-0.51;75.52;100081.72;5071847;28;20189;-64
2021/01/11 10:14:41;;;;;;;7.90;5.65;;;;;;;-0.33;75.26;100070.16;5071450;28;20295;-63
2021/01/11 10:17:29;;;;;;;9.27;5.97;;;;;;;-0.36;75.02;100074.56;5071650;28;20196;-63
2021/01/11 10:20:10;;;;;;;8.40;4.60;;;;;;;-0.51;75.49;100073.78;5071367;28;20625;-62
2021/01/11 10:23:01;;;;;;;12.85;6.53;;;;;;;0.11;73.48;100071.59;5072195;28;20219;-63
2021/01/11 10:25:33;;;;;;;8.27;4.18;;;;;;;-0.12;74.61;100068.25;5071979;28;20698;-64
2021/01/11 10:28:00;;;;;;;13.25;7.50;;;;;;;-0.17;75.26;100070.94;5071814;28;20235;-63
2021/01/11 10:30:29;;;;;;;9.57;6.28;;;;;;;-0.23;75.20;100071.88;5071714;28;20204;-63
2021/01/11 10:32:58;;;;;;;6.40;4.88;;;;;;;-0.29;75.52;100073.69;5071909;28;20208;-64
2021/01/11 10:35:34;;;;;;;11.63;5.80;;;;;;;-0.07;75.70;100067.34;5071746;28;20207;-63
2021/01/11 10:38:35;;;;;;;12.77;6.80;;;;;;;0.07;75.27;100061.94;5071480;28;20192;-63
2021/01/11 10:41:04;;;;;;;9.05;6.28;;;;;;;0.14;74.41;100065.41;5072008;28;20625;-62
2021/01/11 10:43:35;;;;;;;15.13;8.15;;;;;;;0.04;74.91;100066.38;5071763;28;20201;-63
2021/01/11 10:46:11;;;;;;;10.88;6.45;;;;;;;0.10;75.24;100068.97;5071674;28;20291;-63
2021/01/11 10:48:51;;;;;;;13.68;7.25;;;;;;;0.46;74.51;100070.41;5071490;28;20205;-63
2021/01/11 10:51:23;;;;;;;10.30;7.22;;;;;;;0.59;72.99;100064.13;5071128;28;20228;-64
2021/01/11 10:53:58;;;;;;;11.07;5.68;;;;;;;0.45;73.40;100079.25;5071644;28;20602;-63
2021/01/11 10:56:30;;;;;;;9.23;6.90;;;;;;;0.60;73.85;100070.28;5070537;28;20260;-63
2021/01/11 10:58:57;;;;;;;6.97;4.80;;;;;;;0.65;73.40;100079.06;5071105;28;20196;-63
2021/01/11 11:01:26;;;;;;;9.60;7.40;;;;;;;0.73;73.42;100066.63;5071403;28;20193;-63
2021/01/11 11:03:57;;;;;;;12.00;7.78;;;;;;;0.90;72.87;100066.41;5071334;28;20240;-64
2021/01/11 11:06:25;;;;;;;13.13;6.90;;;;;;;0.94;73.17;100061.97;5071561;28;20611;-63
2021/01/11 11:08:52;;;;;;;9.43;8.23;;;;;;;0.99;72.49;100060.13;5074906;28;20615;-63
2021/01/11 11:11:24;;;;;;;7.95;5.68;;;;;;;1.22;71.35;100054.53;5075266;28;20720;-63
2021/01/11 11:13:53;;;;;;;12.32;7.20;;;;;;;1.15;71.96;100047.56;5074879;28;20205;-63
2021/01/11 11:16:23;;;;;;;20.58;8.18;;;;;;;0.99;72.57;100050.41;5075177;28;20193;-63
2021/01/11 11:18:58;;;;;;;12.15;10.32;;;;;;;0.83;73.35;100041.75;5074958;28;20211;-64
2021/01/11 11:21:27;;;;;;;11.75;8.52;;;;;;;0.92;72.80;100045.19;5075174;28;20280;-63
2021/01/11 11:23:54;;;;;;;12.35;8.10;;;;;;;1.07;72.55;100029.09;5074931;28;20678;-63
2021/01/11 11:26:24;;;;;;;13.35;8.05;;;;;;;1.58;71.01;100039.03;5074782;28;20208;-63
2021/01/11 11:28:54;;;;;;;18.75;7.25;;;;;;;1.51;70.88;100035.56;5075092;28;20200;-63
2021/01/11 11:31:21;;;;;;;12.75;6.60;;;;;;;1.74;70.29;100022.00;5075318;28;20192;-69
2021/01/11 11:33:47;;;;;;;8.57;6.15;;;;;;;1.77;69.49;100021.06;5075002;28;20594;-68
2021/01/11 11:36:18;;;;;;;21.73;8.38;;;;;;;1.78;70.33;100018.34;5074942;28;20200;-71
2021/01/11 11:38:45;;;;;;;11.55;6.57;;;;;;;1.85;69.41;99998.81;5074360;28;20260;-69
2021/01/11 11:41:18;;;;;;;14.48;7.38;;;;;;;1.56;70.62;100003.66;5074564;28;20288;-70
2021/01/11 11:43:47;;;;;;;9.35;6.70;;;;;;;1.75;70.64;100002.50;5074562;28;20636;-69
2021/01/11 11:46:14;;;;;;;8.90;6.80;;;;;;;2.02;68.35;99992.31;5074504;28;20240;-69
2021/01/11 11:48:45;;;;;;;10.23;7.13;;;;;;;1.78;67.87;99997.13;5074161;28;20188;-69
2021/01/11 11:51:11;;;;;;;15.10;7.15;;;;;;;1.93;66.65;99996.00;5074367;28;20232;-69
2021/01/11 11:53:45;;;;;;;18.45;5.43;;;;;;;2.22;63.58;100000.81;5074363;28;20192;-69
2021/01/11 11:56:15;;;;;;;5.50;4.80;;;;;;;2.28;62.52;99987.44;5074780;28;20185;-70
2021/01/11 11:58:44;;;;;;;10.38;5.53;;;;;;;2.01;63.47;99985.25;5074288;28;20196;-69
2021/01/11 12:01:18;;;;;;;7.18;6.22;;;;;;;2.22;63.12;99976.91;5074389;28;20204;-69
2021/01/11 12:03:45;;;;;;;14.63;6.47;;;;;;;2.11;64.11;99975.34;5073982;28;20565;-70
2021/01/11 12:06:17;;;;;;;10.43;4.93;;;;;;;2.35;61.29;99979.34;5073879;28;20639;-70
2021/01/11 12:08:45;;;;;;;5.10;3.85;;;;;;;2.41;61.43;99976.56;5074200;28;20187;-69
2021/01/11 12:11:14;;;;;;;4.90;3.88;;;;;;;2.33;61.16;99973.16;5074500;28;20197;-69
2021/01/11 12:13:48;;;;;;;10.48;5.57;;;;;;;2.10;62.45;99961.19;5074345;28;20275;-69
2021/01/11 12:16:23;;;;;;;8.60;6.82;;;;;;;2.04;62.58;99954.22;5074294;28;20196;-69
2021/01/11 12:18:58;;;;;;;7.10;4.65;;;;;;;2.46;61.79;99948.97;5073128;28;20200;-69
2021/01/11 12:21:35;;;;;;;10.10;4.65;;;;;;;2.41;61.27;99955.31;5073788;28;20188;-68
2021/01/11 12:24:10;;;;;;;8.52;5.65;;;;;;;2.40;62.08;99941.16;5074588;28;20204;-69
2021/01/11 12:26:49;;;;;;;7.63;4.32;;;;;;;2.37;61.33;99935.00;5073592;28;20280;-69
2021/01/11 12:29:18;;;;;;;10.48;4.60;;;;;;;2.24;62.31;99921.09;5074215;28;20284;-70
2021/01/11 12:31:52;;;;;;;9.20;4.72;;;;;;;2.29;61.92;99920.09;5073727;28;20228;-68
2021/01/11 12:34:27;;;;;;;10.45;3.60;;;;;;;2.45;59.66;99917.13;5074134;28;20534;-69
2021/01/11 12:36:58;;;;;;;8.25;3.70;;;;;;;2.48;59.28;99901.97;5073795;28;20207;-70
2021/01/11 12:39:26;;;;;;;11.77;5.40;;;;;;;2.56;60.02;99906.28;5073560;28;20235;-70
2021/01/11 12:41:57;;;;;;;7.22;3.63;;;;;;;2.59;59.49;99906.22;5074693;28;20896;-69
2021/01/11 12:44:25;;;;;;;7.93;4.55;;;;;;;2.60;58.97;99918.59;5073503;28;20223;-70
2021/01/11 12:46:57;;;;;;;8.02;4.85;;;;;;;2.24;59.41;99915.78;5073442;28;20197;-69
2021/01/11 12:49:47;;;;;;;8.75;4.80;;;;;;;2.34;59.15;99901.41;5073552;28;20228;-67
2021/01/11 12:52:14;;;;;;;11.30;5.53;;;;;;;2.46;59.32;99900.28;5073546;28;20205;-70
2021/01/11 12:54:42;;;;;;;9.88;5.90;;;;;;;2.27;59.88;99897.97;5063571;28;20255;-70
2021/01/11 12:57:22;;;;;;;8.18;5.15;;;;;;;2.56;59.65;99900.97;5073335;28;20258;-70
2021/01/11 12:59:52;;;;;;;13.57;7.22;;;;;;;2.60;59.41;99892.91;5073118;28;20212;-70
2021/01/11 13:02:18;;;;;;;14.65;7.80;;;;;;;2.55;60.50;99897.41;5073130;28;20326;-69
2021/01/11 13:04:49;;;;;;;22.15;6.90;;;;;;;2.66;59.45;99890.09;5070842;28;20266;-70
2021/01/11 13:07:19;;;;;;;9.65;6.00;;;;;;;2.65;61.35;99899.00;4873326;28;3703635;-70
2021/01/11 13:09:48;;;;;;;12.95;6.75;;;;;;;2.72;60.40;99897.94;5034849;28;20208;-69